sensor_id;sensor_type;location;lat;lon;timestamp;pressure;altitude;pressure_sealevel;temperature;humidity
2675;BME280;1347;42.122;24.746;2022-12-10T00:01:44;99143.00;;;8.75;100.00
2675;BME280;1347;42.122;24.746;2022-12-10T00:04:12;99159.31;;;8.68;100.00
2675;BME280;1347;42.122;24.746;2022-12-10T00:06:39;99140.28;;;8.75;100.00
2675;BME280;1347;42.122;24.746;2022-12-10T00:09:09;99151.28;;;8.79;100.00
2675;BME280;1347;42.122;24.746;2022-12-10T00:11:37;99139.56;;;8.78;100.00
2675;BME280;1347;42.122;24.746;2022-12-10T00:14:04;99147.09;;;8.85;100.00
2675;BME280;1347;42.122;24.746;2022-12-10T00:16:32;99150.50;;;8.78;100.00
2675;BME280;1347;42.122;24.746;2022-12-10T00:19:01;99149.41;;;8.83;100.00
2675;BME280;1347;42.122;24.746;2022-12-10T00:21:29;99148.25;;;8.84;100.00
2675;BME280;1347;42.122;24.746;2022-12-10T00:23:57;99148.13;;;8.77;100.00
2675;BME280;1347;42.122;24.746;2022-12-10T00:26:26;99149.66;;;8.74;100.00
2675;BME280;1347;42.122;24.746;2022-12-10T00:28:54;99156.75;;;8.79;100.00
2675;BME280;1347;42.122;24.746;2022-12-10T00:31:23;99152.50;;;8.81;100.00
2675;BME280;1347;42.122;24.746;2022-12-10T00:33:52;99152.50;;;8.81;100.00
2675;BME280;1347;42.122;24.746;2022-12-10T00:36:23;99140.34;;;8.79;100.00
2675;BME280;1347;42.122;24.746;2022-12-10T00:38:51;99144.31;;;8.81;100.00
2675;BME280;1347;42.122;24.746;2022-12-10T00:41:18;99156.81;;;8.82;100.00
2675;BME280;1347;42.122;24.746;2022-12-10T00:43:45;99155.66;;;8.83;100.00
2675;BME280;1347;42.122;24.746;2022-12-10T00:46:12;99146.59;;;8.79;100.00
2675;BME280;1347;42.122;24.746;2022-12-10T00:48:40;99154.75;;;8.76;100.00
2675;BME280;1347;42.122;24.746;2022-12-10T00:51:09;99156.38;;;8.80;100.00
2675;BME280;1347;42.122;24.746;2022-12-10T00:53:39;99155.31;;;8.62;100.00
2675;BME280;1347;42.122;24.746;2022-12-10T00:56:07;99152.63;;;8.66;100.00
2675;BME280;1347;42.122;24.746;2022-12-10T00:58:36;99138.22;;;8.69;100.00
2675;BME280;1347;42.122;24.746;2022-12-10T01:01:07;99149.22;;;8.72;100.00
2675;BME280;1347;42.122;24.746;2022-12-10T01:03:34;99153.00;;;8.64;100.00
2675;BME280;1347;42.122;24.746;2022-12-10T01:06:08;99133.19;;;8.71;100.00
2675;BME280;1347;42.122;24.746;2022-12-10T01:08:35;99149.97;;;8.69;100.00
2675;BME280;1347;42.122;24.746;2022-12-10T01:11:04;99157.78;;;8.71;100.00
2675;BME280;1347;42.122;24.746;2022-12-10T01:13:31;99137.81;;;8.67;100.00
2675;BME280;1347;42.122;24.746;2022-12-10T01:16:00;99134.53;;;8.58;100.00
2675;BME280;1347;42.122;24.746;2022-12-10T01:18:27;99138.38;;;8.53;100.00
2675;BME280;1347;42.122;24.746;2022-12-10T01:20:54;99112.06;;;8.45;100.00
2675;BME280;1347;42.122;24.746;2022-12-10T01:23:21;99123.88;;;8.49;100.00
2675;BME280;1347;42.122;24.746;2022-12-10T01:25:48;99114.66;;;8.34;100.00
2675;BME280;1347;42.122;24.746;2022-12-10T01:28:16;99116.97;;;8.32;100.00
2675;BME280;1347;42.122;24.746;2022-12-10T01:30:43;99113.91;;;8.37;100.00
2675;BME280;1347;42.122;24.746;2022-12-10T01:33:10;99107.38;;;8.42;100.00
2675;BME280;1347;42.122;24.746;2022-12-10T01:35:37;99103.88;;;8.45;100.00
2675;BME280;1347;42.122;24.746;2022-12-10T01:38:04;99101.47;;;8.40;100.00
2675;BME280;1347;42.122;24.746;2022-12-10T01:40:31;99095.75;;;8.48;100.00
2675;BME280;1347;42.122;24.746;2022-12-10T01:42:57;99089.22;;;8.53;100.00
2675;BME280;1347;42.122;24.746;2022-12-10T01:45:26;99095.81;;;8.52;100.00
2675;BME280;1347;42.122;24.746;2022-12-10T01:47:53;99091.09;;;8.49;100.00
2675;BME280;1347;42.122;24.746;2022-12-10T01:50:20;99095.13;;;8.59;100.00
2675;BME280;1347;42.122;24.746;2022-12-10T01:52:47;99083.78;;;8.57;100.00
2675;BME280;1347;42.122;24.746;2022-12-10T01:55:41;99091.16;;;8.53;100.00
2675;BME280;1347;42.122;24.746;2022-12-10T01:58:09;99085.38;;;8.58;100.00
2675;BME280;1347;42.122;24.746;2022-12-10T02:00:43;99073.28;;;8.59;100.00
2675;BME280;1347;42.122;24.746;2022-12-10T02:03:15;99074.00;;;8.56;100.00
2675;BME280;1347;42.122;24.746;2022-12-10T02:05:49;99073.28;;;8.59;100.00
2675;BME280;1347;42.122;24.746;2022-12-10T02:08:23;99078.31;;;8.57;100.00
2675;BME280;1347;42.122;24.746;2022-12-10T02:10:59;99072.06;;;8.56;100.00
2675;BME280;1347;42.122;24.746;2022-12-10T02:13:33;99074.41;;;8.54;100.00
2675;BME280;1347;42.122;24.746;2022-12-10T02:16:08;99067.75;;;8.55;100.00
2675;BME280;1347;42.122;24.746;2022-12-10T02:18:38;99065.59;;;8.41;100.00
2675;BME280;1347;42.122;24.746;2022-12-10T02:21:10;99059.00;;;8.42;100.00
2675;BME280;1347;42.122;24.746;2022-12-10T02:23:43;99068.81;;;8.47;100.00
2675;BME280;1347;42.122;24.746;2022-12-10T02:26:14;99059.94;;;8.54;100.00
2675;BME280;1347;42.122;24.746;2022-12-10T02:28:47;99068.94;;;8.54;100.00
2675;BME280;1347;42.122;24.746;2022-12-10T02:31:21;99059.53;;;8.52;100.00
2675;BME280;1347;42.122;24.746;2022-12-10T02:33:52;99065.00;;;8.52;100.00
2675;BME280;1347;42.122;24.746;2022-12-10T02:36:23;99080.59;;;8.51;100.00
2675;BME280;1347;42.122;24.746;2022-12-10T02:38:52;99078.66;;;8.52;100.00
2675;BME280;1347;42.122;24.746;2022-12-10T02:41:23;99083.75;;;8.53;100.00
2675;BME280;1347;42.122;24.746;2022-12-10T02:43:54;99079.16;;;8.34;100.00
2675;BME280;1347;42.122;24.746;2022-12-10T02:46:24;99089.81;;;8.43;100.00
2675;BME280;1347;42.122;24.746;2022-12-10T02:48:55;99084.38;;;8.43;100.00
2675;BME280;1347;42.122;24.746;2022-12-10T02:51:24;99084.00;;;8.44;100.00
2675;BME280;1347;42.122;24.746;2022-12-10T02:53:58;99079.00;;;8.50;100.00
2675;BME280;1347;42.122;24.746;2022-12-10T02:56:31;99070.88;;;8.54;100.00
2675;BME280;1347;42.122;24.746;2022-12-10T02:59:06;99069.16;;;8.45;100.00
2675;BME280;1347;42.122;24.746;2022-12-10T03:01:44;99063.09;;;8.56;100.00
2675;BME280;1347;42.122;24.746;2022-12-10T03:04:14;99063.47;;;8.54;100.00
2675;BME280;1347;42.122;24.746;2022-12-10T03:06:46;99057.53;;;8.48;100.00
2675;BME280;1347;42.122;24.746;2022-12-10T03:09:19;99053.91;;;8.41;100.00
2675;BME280;1347;42.122;24.746;2022-12-10T03:11:48;99063.16;;;8.36;100.00
2675;BME280;1347;42.122;24.746;2022-12-10T03:14:21;99059.78;;;8.43;100.00
2675;BME280;1347;42.122;24.746;2022-12-10T03:16:54;99058.84;;;8.35;100.00
2675;BME280;1347;42.122;24.746;2022-12-10T03:19:26;99056.09;;;8.32;100.00
2675;BME280;1347;42.122;24.746;2022-12-10T03:21:56;99044.13;;;8.40;100.00
2675;BME280;1347;42.122;24.746;2022-12-10T03:24:25;99048.00;;;8.39;100.00
2675;BME280;1347;42.122;24.746;2022-12-10T03:26:53;99037.94;;;8.43;100.00
2675;BME280;1347;42.122;24.746;2022-12-10T03:29:22;99049.88;;;8.35;100.00
2675;BME280;1347;42.122;24.746;2022-12-10T03:31:52;99049.94;;;8.38;100.00
2675;BME280;1347;42.122;24.746;2022-12-10T03:34:21;99039.44;;;8.40;100.00
2675;BME280;1347;42.122;24.746;2022-12-10T03:36:49;99044.19;;;8.43;100.00
2675;BME280;1347;42.122;24.746;2022-12-10T03:39:17;99041.75;;;8.38;100.00
2675;BME280;1347;42.122;24.746;2022-12-10T03:41:44;99038.91;;;8.31;100.00
2675;BME280;1347;42.122;24.746;2022-12-10T03:44:11;99026.50;;;8.37;100.00
2675;BME280;1347;42.122;24.746;2022-12-10T03:46:38;99023.75;;;8.34;100.00
2675;BME280;1347;42.122;24.746;2022-12-10T03:49:06;99028.69;;;8.28;100.00
2675;BME280;1347;42.122;24.746;2022-12-10T03:51:33;99023.06;;;8.40;100.00
2675;BME280;1347;42.122;24.746;2022-12-10T03:54:00;99012.56;;;8.42;100.00
2675;BME280;1347;42.122;24.746;2022-12-10T03:56:28;99017.66;;;8.44;100.00
2675;BME280;1347;42.122;24.746;2022-12-10T03:58:55;99004.00;;;8.44;100.00
2675;BME280;1347;42.122;24.746;2022-12-10T04:01:21;99024.28;;;8.43;100.00
2675;BME280;1347;42.122;24.746;2022-12-10T04:03:48;99025.31;;;8.35;100.00
2675;BME280;1347;42.122;24.746;2022-12-10T04:06:18;99021.38;;;8.32;100.00
2675;BME280;1347;42.122;24.746;2022-12-10T04:08:45;99029.59;;;8.36;100.00
2675;BME280;1347;42.122;24.746;2022-12-10T04:11:13;99033.78;;;8.30;100.00
2675;BME280;1347;42.122;24.746;2022-12-10T04:13:41;99040.13;;;8.34;100.00
2675;BME280;1347;42.122;24.746;2022-12-10T04:16:26;99026.47;;;8.34;100.00
2675;BME280;1347;42.122;24.746;2022-12-10T04:18:55;99031.56;;;8.35;100.00
2675;BME280;1347;42.122;24.746;2022-12-10T04:21:24;99040.16;;;8.37;100.00
2675;BME280;1347;42.122;24.746;2022-12-10T04:24:09;99025.00;;;8.40;100.00
2675;BME280;1347;42.122;24.746;2022-12-10T04:26:54;99009.84;;;8.42;100.00
2675;BME280;1347;42.122;24.746;2022-12-10T04:29:22;99032.63;;;8.31;100.00
2675;BME280;1347;42.122;24.746;2022-12-10T04:31:49;99027.78;;;8.21;100.00
2675;BME280;1347;42.122;24.746;2022-12-10T04:34:16;99029.81;;;8.24;100.00
2675;BME280;1347;42.122;24.746;2022-12-10T04:36:45;99025.97;;;8.28;100.00
2675;BME280;1347;42.122;24.746;2022-12-10T04:39:12;99026.50;;;8.37;100.00
2675;BME280;1347;42.122;24.746;2022-12-10T04:41:40;99042.91;;;8.37;100.00
2675;BME280;1347;42.122;24.746;2022-12-10T04:44:08;99042.19;;;8.40;100.00
2675;BME280;1347;42.122;24.746;2022-12-10T04:46:35;99040.31;;;8.44;100.00
2675;BME280;1347;42.122;24.746;2022-12-10T04:49:02;99036.28;;;8.38;100.00
2675;BME280;1347;42.122;24.746;2022-12-10T04:51:29;99048.69;;;8.32;100.00
2675;BME280;1347;42.122;24.746;2022-12-10T04:53:58;99027.53;;;8.29;100.00
2675;BME280;1347;42.122;24.746;2022-12-10T04:56:25;99024.81;;;8.29;100.00
2675;BME280;1347;42.122;24.746;2022-12-10T04:58:52;99022.06;;;8.29;100.00
2675;BME280;1347;42.122;24.746;2022-12-10T05:01:19;99027.78;;;8.21;100.00
2675;BME280;1347;42.122;24.746;2022-12-10T05:03:45;99011.47;;;8.24;100.00
2675;BME280;1347;42.122;24.746;2022-12-10T05:06:14;99011.63;;;8.31;100.00
2675;BME280;1347;42.122;24.746;2022-12-10T05:08:42;99011.06;;;8.22;100.00
2675;BME280;1347;42.122;24.746;2022-12-10T05:11:13;99004.78;;;8.22;100.00
2675;BME280;1347;42.122;24.746;2022-12-10T05:13:40;99017.22;;;8.19;100.00
2675;BME280;1347;42.122;24.746;2022-12-10T05:16:09;99029.72;;;8.20;100.00
2675;BME280;1347;42.122;24.746;2022-12-10T05:18:36;99014.94;;;8.21;100.00
2675;BME280;1347;42.122;24.746;2022-12-10T05:21:05;99022.78;;;8.26;100.00
2675;BME280;1347;42.122;24.746;2022-12-10T05:23:33;99036.97;;;8.32;100.00
2675;BME280;1347;42.122;24.746;2022-12-10T05:26:00;99032.31;;;8.32;100.00
2675;BME280;1347;42.122;24.746;2022-12-10T05:28:29;99024.34;;;8.24;100.00
2675;BME280;1347;42.122;24.746;2022-12-10T05:30:57;99018.69;;;8.36;100.00
2675;BME280;1347;42.122;24.746;2022-12-10T05:33:24;99020.44;;;8.25;100.00
2675;BME280;1347;42.122;24.746;2022-12-10T05:35:53;99026.38;;;8.30;100.00
2675;BME280;1347;42.122;24.746;2022-12-10T05:38:20;99026.88;;;8.36;100.00
2675;BME280;1347;42.122;24.746;2022-12-10T05:40:47;99012.66;;;8.27;100.00
2675;BME280;1347;42.122;24.746;2022-12-10T05:43:14;99022.22;;;8.36;100.00
2675;BME280;1347;42.122;24.746;2022-12-10T05:45:42;99024.56;;;8.38;100.00
2675;BME280;1347;42.122;24.746;2022-12-10T05:48:09;99022.53;;;8.31;100.00
2675;BME280;1347;42.122;24.746;2022-12-10T05:50:36;99006.97;;;8.35;100.00
2675;BME280;1347;42.122;24.746;2022-12-10T05:53:04;99015.13;;;8.32;100.00
2675;BME280;1347;42.122;24.746;2022-12-10T05:55:31;99016.09;;;8.43;100.00
2675;BME280;1347;42.122;24.746;2022-12-10T05:57:58;99000.88;;;8.45;100.00
2675;BME280;1347;42.122;24.746;2022-12-10T06:00:26;99009.84;;;8.42;100.00
2675;BME280;1347;42.122;24.746;2022-12-10T06:02:54;99015.03;;;8.51;100.00
2675;BME280;1347;42.122;24.746;2022-12-10T06:05:21;99004.91;;;8.52;100.00
2675;BME280;1347;42.122;24.746;2022-12-10T06:07:48;99005.31;;;8.54;100.00
2675;BME280;1347;42.122;24.746;2022-12-10T06:10:15;99016.69;;;8.59;100.00
2675;BME280;1347;42.122;24.746;2022-12-10T06:12:42;99006.13;;;8.58;100.00
2675;BME280;1347;42.122;24.746;2022-12-10T06:15:09;99008.06;;;8.54;100.00
2675;BME280;1347;42.122;24.746;2022-12-10T06:17:36;98996.88;;;8.66;100.00
2675;BME280;1347;42.122;24.746;2022-12-10T06:20:06;99002.47;;;8.73;100.00
2675;BME280;1347;42.122;24.746;2022-12-10T06:22:33;98997.44;;;8.75;100.00
2675;BME280;1347;42.122;24.746;2022-12-10T06:25:00;99004.41;;;8.72;100.00
2675;BME280;1347;42.122;24.746;2022-12-10T06:27:29;98993.38;;;8.65;100.00
2675;BME280;1347;42.122;24.746;2022-12-10T06:29:56;99005.66;;;8.78;100.00
2675;BME280;1347;42.122;24.746;2022-12-10T06:32:23;99000.25;;;8.82;100.00
2675;BME280;1347;42.122;24.746;2022-12-10T06:34:50;99002.69;;;8.91;100.00
2675;BME280;1347;42.122;24.746;2022-12-10T06:37:19;99008.66;;;9.00;100.00
2675;BME280;1347;42.122;24.746;2022-12-10T06:39:46;99020.97;;;9.13;100.00
2675;BME280;1347;42.122;24.746;2022-12-10T06:42:13;99016.69;;;9.15;100.00
2675;BME280;1347;42.122;24.746;2022-12-10T06:44:40;99024.47;;;9.13;100.00
2675;BME280;1347;42.122;24.746;2022-12-10T06:47:07;99006.41;;;9.05;100.00
2675;BME280;1347;42.122;24.746;2022-12-10T06:49:34;99007.06;;;8.95;100.00
2675;BME280;1347;42.122;24.746;2022-12-10T06:52:01;99012.94;;;8.97;100.00
2675;BME280;1347;42.122;24.746;2022-12-10T06:54:29;99020.81;;;9.02;100.00
2675;BME280;1347;42.122;24.746;2022-12-10T06:56:56;99022.44;;;9.07;100.00
2675;BME280;1347;42.122;24.746;2022-12-10T06:59:23;99018.09;;;9.02;100.00
2675;BME280;1347;42.122;24.746;2022-12-10T07:01:50;99008.09;;;9.17;100.00
2675;BME280;1347;42.122;24.746;2022-12-10T07:04:17;99014.34;;;9.14;100.00
2675;BME280;1347;42.122;24.746;2022-12-10T07:06:44;99019.94;;;9.25;100.00
2675;BME280;1347;42.122;24.746;2022-12-10T07:09:11;99010.16;;;9.23;100.00
2675;BME280;1347;42.122;24.746;2022-12-10T07:11:40;99023.94;;;9.34;100.00
2675;BME280;1347;42.122;24.746;2022-12-10T07:14:06;99026.19;;;9.25;100.00
2675;BME280;1347;42.122;24.746;2022-12-10T07:16:33;99024.50;;;9.17;100.00
2675;BME280;1347;42.122;24.746;2022-12-10T07:19:01;99004.13;;;9.11;100.00
2675;BME280;1347;42.122;24.746;2022-12-10T07:21:30;99008.09;;;9.17;100.00
2675;BME280;1347;42.122;24.746;2022-12-10T07:24:00;99018.66;;;9.18;100.00
2675;BME280;1347;42.122;24.746;2022-12-10T07:26:29;99012.13;;;9.27;100.00
2675;BME280;1347;42.122;24.746;2022-12-10T07:28:58;98995.03;;;9.37;100.00
2675;BME280;1347;42.122;24.746;2022-12-10T07:31:26;98993.81;;;9.31;100.00
2675;BME280;1347;42.122;24.746;2022-12-10T07:33:54;98990.78;;;9.39;100.00
2675;BME280;1347;42.122;24.746;2022-12-10T07:36:23;98997.09;;;9.47;100.00
2675;BME280;1347;42.122;24.746;2022-12-10T07:38:54;98993.50;;;9.39;100.00
2675;BME280;1347;42.122;24.746;2022-12-10T07:41:22;99003.34;;;9.44;100.00
2675;BME280;1347;42.122;24.746;2022-12-10T07:43:50;99011.72;;;9.25;100.00
2675;BME280;1347;42.122;24.746;2022-12-10T07:46:20;99001.94;;;9.23;100.00
2675;BME280;1347;42.122;24.746;2022-12-10T07:48:49;98991.88;;;9.31;100.00
2675;BME280;1347;42.122;24.746;2022-12-10T07:51:18;98986.94;;;9.10;100.00
2675;BME280;1347;42.122;24.746;2022-12-10T07:53:46;98984.84;;;9.00;100.00
2675;BME280;1347;42.122;24.746;2022-12-10T07:56:13;98989.97;;;9.02;100.00
2675;BME280;1347;42.122;24.746;2022-12-10T07:58:41;98995.78;;;9.00;100.00
2675;BME280;1347;42.122;24.746;2022-12-10T08:01:11;98999.69;;;8.99;100.00
2675;BME280;1347;42.122;24.746;2022-12-10T08:03:40;98999.22;;;8.94;100.00
2675;BME280;1347;42.122;24.746;2022-12-10T08:06:09;99007.81;;;8.92;100.00
2675;BME280;1347;42.122;24.746;2022-12-10T08:08:37;98991.72;;;8.87;100.00
2675;BME280;1347;42.122;24.746;2022-12-10T08:11:05;98980.09;;;8.94;100.00
2675;BME280;1347;42.122;24.746;2022-12-10T08:13:34;98991.19;;;9.08;100.00
2675;BME280;1347;42.122;24.746;2022-12-10T08:16:02;98988.16;;;9.16;100.00
2675;BME280;1347;42.122;24.746;2022-12-10T08:18:29;98989.31;;;9.12;100.00
2675;BME280;1347;42.122;24.746;2022-12-10T08:20:58;98994.06;;;9.18;100.00
2675;BME280;1347;42.122;24.746;2022-12-10T08:23:24;98990.72;;;9.32;100.00
2675;BME280;1347;42.122;24.746;2022-12-10T08:25:51;99009.50;;;9.37;100.00
2675;BME280;1347;42.122;24.746;2022-12-10T08:28:18;98993.19;;;9.44;100.00
2675;BME280;1347;42.122;24.746;2022-12-10T08:30:46;98989.41;;;9.56;100.00
2675;BME280;1347;42.122;24.746;2022-12-10T08:33:13;98991.84;;;9.65;100.00
2675;BME280;1347;42.122;24.746;2022-12-10T08:35:40;98973.94;;;9.74;100.00
2675;BME280;1347;42.122;24.746;2022-12-10T08:38:08;98957.94;;;9.76;100.00
2675;BME280;1347;42.122;24.746;2022-12-10T08:40:38;98962.28;;;9.81;100.00
2675;BME280;1347;42.122;24.746;2022-12-10T08:43:06;98965.88;;;9.92;100.00
2675;BME280;1347;42.122;24.746;2022-12-10T08:45:33;98970.09;;;9.82;100.00
2675;BME280;1347;42.122;24.746;2022-12-10T08:48:00;98965.84;;;9.88;100.00
2675;BME280;1347;42.122;24.746;2022-12-10T08:50:27;98966.31;;;9.97;100.00
2675;BME280;1347;42.122;24.746;2022-12-10T08:52:54;98967.69;;;10.18;100.00
2675;BME280;1347;42.122;24.746;2022-12-10T08:55:22;98962.03;;;10.48;100.00
2675;BME280;1347;42.122;24.746;2022-12-10T08:57:49;98964.06;;;10.58;100.00
2675;BME280;1347;42.122;24.746;2022-12-10T09:00:16;98952.78;;;10.74;100.00
2675;BME280;1347;42.122;24.746;2022-12-10T09:02:44;98956.38;;;10.88;100.00
2675;BME280;1347;42.122;24.746;2022-12-10T09:05:11;98956.06;;;11.11;100.00
2675;BME280;1347;42.122;24.746;2022-12-10T09:07:38;98947.53;;;11.34;100.00
2675;BME280;1347;42.122;24.746;2022-12-10T09:10:06;98931.06;;;11.41;100.00
2675;BME280;1347;42.122;24.746;2022-12-10T09:12:34;98931.47;;;11.47;100.00
2675;BME280;1347;42.122;24.746;2022-12-10T09:15:01;98936.59;;;11.59;100.00
2675;BME280;1347;42.122;24.746;2022-12-10T09:17:28;98921.34;;;11.86;100.00
2675;BME280;1347;42.122;24.746;2022-12-10T09:19:55;98916.22;;;12.16;100.00
2675;BME280;1347;42.122;24.746;2022-12-10T09:22:22;98916.63;;;12.19;99.47
2675;BME280;1347;42.122;24.746;2022-12-10T09:24:49;98908.34;;;12.36;98.47
2675;BME280;1347;42.122;24.746;2022-12-10T09:27:16;98908.69;;;12.52;97.95
2675;BME280;1347;42.122;24.746;2022-12-10T09:29:44;98914.91;;;12.74;96.77
2675;BME280;1347;42.122;24.746;2022-12-10T09:32:11;98916.44;;;12.86;97.54
2675;BME280;1347;42.122;24.746;2022-12-10T09:34:38;98913.91;;;13.31;95.92
2675;BME280;1347;42.122;24.746;2022-12-10T09:37:04;98893.31;;;14.01;90.51
2675;BME280;1347;42.122;24.746;2022-12-10T09:39:31;98877.88;;;15.13;86.05
2675;BME280;1347;42.122;24.746;2022-12-10T09:42:07;98876.88;;;16.27;82.97
2675;BME280;1347;42.122;24.746;2022-12-10T09:44:50;98875.38;;;16.42;80.68
2675;BME280;1347;42.122;24.746;2022-12-10T09:47:20;98883.00;;;16.14;79.23
2675;BME280;1347;42.122;24.746;2022-12-10T09:49:59;98873.03;;;15.47;81.80
2675;BME280;1347;42.122;24.746;2022-12-10T09:52:34;98878.47;;;15.54;81.69
2675;BME280;1347;42.122;24.746;2022-12-10T09:55:05;98857.72;;;15.42;81.36
2675;BME280;1347;42.122;24.746;2022-12-10T09:57:39;98849.75;;;15.21;83.53
2675;BME280;1347;42.122;24.746;2022-12-10T10:00:19;98841.25;;;15.62;83.68
2675;BME280;1347;42.122;24.746;2022-12-10T10:02:46;98839.63;;;15.38;81.97
2675;BME280;1347;42.122;24.746;2022-12-10T10:05:20;98839.91;;;15.20;83.70
2675;BME280;1347;42.122;24.746;2022-12-10T10:07:51;98837.63;;;15.15;83.59
2675;BME280;1347;42.122;24.746;2022-12-10T10:10:24;98831.66;;;15.17;83.41
2675;BME280;1347;42.122;24.746;2022-12-10T10:12:52;98829.69;;;14.90;81.92
2675;BME280;1347;42.122;24.746;2022-12-10T10:15:27;98830.78;;;14.66;83.27
2675;BME280;1347;42.122;24.746;2022-12-10T10:17:57;98818.88;;;14.42;83.67
2675;BME280;1347;42.122;24.746;2022-12-10T10:20:24;98811.22;;;14.19;85.28
2675;BME280;1347;42.122;24.746;2022-12-10T10:22:53;98827.69;;;13.89;87.27
2675;BME280;1347;42.122;24.746;2022-12-10T10:25:23;98814.34;;;13.84;86.76
2675;BME280;1347;42.122;24.746;2022-12-10T10:27:50;98818.28;;;13.83;88.63
2675;BME280;1347;42.122;24.746;2022-12-10T10:30:20;98811.41;;;13.60;88.83
2675;BME280;1347;42.122;24.746;2022-12-10T10:32:51;98811.75;;;13.66;89.59
2675;BME280;1347;42.122;24.746;2022-12-10T10:35:27;98799.44;;;13.78;89.34
2675;BME280;1347;42.122;24.746;2022-12-10T10:38:00;98791.84;;;13.89;89.79
2675;BME280;1347;42.122;24.746;2022-12-10T10:40:30;98789.47;;;13.91;87.17
2675;BME280;1347;42.122;24.746;2022-12-10T10:42:59;98784.88;;;13.77;87.48
2675;BME280;1347;42.122;24.746;2022-12-10T10:45:33;98783.72;;;13.75;89.04
2675;BME280;1347;42.122;24.746;2022-12-10T10:48:09;98777.47;;;13.71;89.71
2675;BME280;1347;42.122;24.746;2022-12-10T10:50:39;98760.75;;;13.92;89.77
2675;BME280;1347;42.122;24.746;2022-12-10T10:53:39;98749.19;;;14.04;90.19
2675;BME280;1347;42.122;24.746;2022-12-10T10:56:10;98766.47;;;14.08;88.98
2675;BME280;1347;42.122;24.746;2022-12-10T10:58:49;98757.16;;;13.95;87.45
2675;BME280;1347;42.122;24.746;2022-12-10T11:01:16;98765.72;;;14.04;87.52
2675;BME280;1347;42.122;24.746;2022-12-10T11:03:48;98751.22;;;13.96;88.86
2675;BME280;1347;42.122;24.746;2022-12-10T11:06:16;98761.34;;;14.07;88.28
2675;BME280;1347;42.122;24.746;2022-12-10T11:08:44;98756.19;;;14.12;88.25
2675;BME280;1347;42.122;24.746;2022-12-10T11:11:18;98744.97;;;14.26;88.26
2675;BME280;1347;42.122;24.746;2022-12-10T11:13:46;98749.25;;;14.31;87.84
2675;BME280;1347;42.122;24.746;2022-12-10T11:16:19;98746.94;;;14.26;87.75
2675;BME280;1347;42.122;24.746;2022-12-10T11:18:56;98735.75;;;14.06;88.42
2675;BME280;1347;42.122;24.746;2022-12-10T11:21:28;98741.47;;;13.92;89.30
2675;BME280;1347;42.122;24.746;2022-12-10T11:23:57;98736.38;;;14.21;87.50
2675;BME280;1347;42.122;24.746;2022-12-10T11:26:45;98740.44;;;14.13;87.69
2675;BME280;1347;42.122;24.746;2022-12-10T11:29:37;98720.28;;;14.16;88.19
2675;BME280;1347;42.122;24.746;2022-12-10T11:32:20;98720.09;;;13.99;88.19
2675;BME280;1347;42.122;24.746;2022-12-10T11:35:02;98720.53;;;14.28;88.40
2675;BME280;1347;42.122;24.746;2022-12-10T11:37:35;98713.31;;;14.08;88.06
2675;BME280;1347;42.122;24.746;2022-12-10T11:40:14;98703.78;;;13.82;90.08
2675;BME280;1347;42.122;24.746;2022-12-10T11:42:53;98690.78;;;13.82;88.36
2675;BME280;1347;42.122;24.746;2022-12-10T11:45:26;98690.94;;;13.68;88.74
2675;BME280;1347;42.122;24.746;2022-12-10T11:48:04;98683.25;;;13.08;91.11
2675;BME280;1347;42.122;24.746;2022-12-10T11:50:41;98680.34;;;13.25;91.47
2675;BME280;1347;42.122;24.746;2022-12-10T11:53:24;98669.50;;;13.04;93.95
2675;BME280;1347;42.122;24.746;2022-12-10T11:55:57;98657.00;;;12.96;94.35
2675;BME280;1347;42.122;24.746;2022-12-10T11:58:43;98667.50;;;13.12;93.07
2675;BME280;1347;42.122;24.746;2022-12-10T12:01:21;98660.44;;;13.07;94.41
2675;BME280;1347;42.122;24.746;2022-12-10T12:04:03;98648.75;;;13.00;94.55
2675;BME280;1347;42.122;24.746;2022-12-10T12:09:41;98655.44;;;12.95;94.80
2675;BME280;1347;42.122;24.746;2022-12-10T12:12:20;98643.78;;;12.80;96.58
2675;BME280;1347;42.122;24.746;2022-12-10T12:14:57;98643.09;;;12.69;96.99
2675;BME280;1347;42.122;24.746;2022-12-10T12:17:27;98638.41;;;12.63;96.75
2675;BME280;1347;42.122;24.746;2022-12-10T12:19:59;98625.69;;;12.83;97.77
2675;BME280;1347;42.122;24.746;2022-12-10T12:22:32;98622.50;;;12.88;97.66
2675;BME280;1347;42.122;24.746;2022-12-10T12:25:02;98626.31;;;13.01;95.66
2675;BME280;1347;42.122;24.746;2022-12-10T12:27:34;98624.19;;;12.75;98.53
2675;BME280;1347;42.122;24.746;2022-12-10T12:30:06;98619.91;;;12.70;100.00
2675;BME280;1347;42.122;24.746;2022-12-10T12:32:46;98629.66;;;12.78;99.74
2675;BME280;1347;42.122;24.746;2022-12-10T12:35:19;98620.25;;;12.72;99.67
2675;BME280;1347;42.122;24.746;2022-12-10T12:38:06;98617.38;;;12.90;98.81
2675;BME280;1347;42.122;24.746;2022-12-10T12:41:03;98619.69;;;12.95;98.60
2675;BME280;1347;42.122;24.746;2022-12-10T12:43:41;98624.09;;;12.85;99.41
2675;BME280;1347;42.122;24.746;2022-12-10T12:46:18;98618.88;;;12.98;99.06
2675;BME280;1347;42.122;24.746;2022-12-10T12:48:52;98609.41;;;13.03;99.03
2675;BME280;1347;42.122;24.746;2022-12-10T12:51:25;98606.69;;;12.99;96.37
2675;BME280;1347;42.122;24.746;2022-12-10T12:54:11;98605.91;;;12.99;97.38
2675;BME280;1347;42.122;24.746;2022-12-10T12:56:55;98624.59;;;13.21;96.68
2675;BME280;1347;42.122;24.746;2022-12-10T12:59:35;98629.19;;;12.87;97.92
2675;BME280;1347;42.122;24.746;2022-12-10T13:02:17;98623.22;;;12.96;98.00
2675;BME280;1347;42.122;24.746;2022-12-10T13:04:55;98617.66;;;13.03;97.49
2675;BME280;1347;42.122;24.746;2022-12-10T13:07:33;98601.28;;;12.88;99.38
2675;BME280;1347;42.122;24.746;2022-12-10T13:10:26;98604.53;;;12.76;99.50
2675;BME280;1347;42.122;24.746;2022-12-10T13:13:21;98606.09;;;12.77;100.00
2675;BME280;1347;42.122;24.746;2022-12-10T13:15:51;98605.81;;;12.65;100.00
2675;BME280;1347;42.122;24.746;2022-12-10T13:21:32;98604.78;;;12.44;100.00
2675;BME280;1347;42.122;24.746;2022-12-10T13:24:07;98596.63;;;12.34;100.00
2675;BME280;1347;42.122;24.746;2022-12-10T13:26:36;98590.31;;;12.37;100.00
2675;BME280;1347;42.122;24.746;2022-12-10T13:29:24;98613.84;;;12.41;100.00
2675;BME280;1347;42.122;24.746;2022-12-10T13:32:02;98591.81;;;12.45;100.00
2675;BME280;1347;42.122;24.746;2022-12-10T13:34:33;98602.06;;;12.41;100.00